Time;durP1;ratioP1;P1;durP2;ratioP2;P2;SDS_P1;SDS_P2;PMS_P1;PMS_P2;Temp;Humidity;BMP_temperature;BMP_pressure;BME280_temperature;BME280_humidity;BME280_pressure;Samples;Min_cycle;Max_cycle;Signal;HPM_P1;HPM_P2
2022/02/08 00:00:30;;;;;;;;;;;;;;;3.81;59.38;100047.47;4333064;33;19996;-82
2022/02/08 00:02:57;;;;;;;;;;;;;;;3.92;59.40;100061.19;4319709;33;20247;-82
2022/02/08 00:05:24;;;;;;;;;;;;;;;3.72;59.39;100068.03;4319574;33;20059;-83
2022/02/08 00:07:52;;;;;;;;;;;;;;;3.77;59.39;100071.47;4332220;33;20084;-82
2022/02/08 00:10:17;;;;;;;;;;;;;;;3.82;59.39;100077.50;4331078;33;20028;-83
2022/02/08 00:12:43;;;;;;;;;;;;;;;3.81;59.39;100086.94;4333208;33;20352;-83
2022/02/08 00:15:08;;;;;;;;;;;;;;;3.99;59.40;100094.66;4307261;33;19980;-83
2022/02/08 00:17:34;;;;;;;;;;;;;;;4.01;59.40;100104.94;4319558;33;20276;-83
2022/02/08 00:20:00;;;;;;;;;;;;;;;4.06;59.40;100118.72;4319486;33;20004;-82
2022/02/08 00:22:25;;;;;;;;;;;;;;;3.91;59.40;100126.41;4319484;33;20406;-84
2022/02/08 00:24:50;;;;;;;;;;;;;;;3.71;59.39;100118.66;4319413;33;19995;-84
2022/02/08 00:27:16;;;;;;;;;;;;;;;3.91;59.40;100122.13;4332766;33;20010;-84
2022/02/08 00:29:41;;;;;;;;;;;;;;;3.79;59.39;100129.84;4331621;33;20056;-84
2022/02/08 00:32:06;;;;;;;;;;;;;;;3.86;59.40;100139.28;4319347;33;20305;-83
2022/02/08 00:34:32;;;;;;;;;;;;;;;3.89;59.39;100148.75;4318983;33;20038;-82
2022/02/08 00:36:57;;;;;;;;;;;;;;;3.83;59.40;100159.03;4332501;33;22742;-83
2022/02/08 00:39:23;;;;;;;;;;;;;;;4.03;59.40;100162.50;4318864;33;30012;-82
2022/02/08 00:41:48;;;;;;;;;;;;;;;4.06;59.41;100179.69;4319464;33;20022;-83
2022/02/08 00:44:22;;;;;;;;;;;;;;;4.16;59.41;100174.53;4332560;33;20364;-82
2022/02/08 00:47:33;;;;;;;;;;;;;;;4.16;59.41;100171.94;4332821;33;19989;-81
2022/02/08 00:49:39;;;;;;;;;;;;;;;4.32;59.42;100175.41;4330161;33;20031;-83
2022/02/08 00:52:10;;;;;;;;;;;;;;;4.11;59.41;100172.81;4332600;33;20043;-82
2022/02/08 00:54:35;;;;;;;;;;;;;;;3.97;59.41;100183.94;4332814;33;19976;-82
2022/02/08 00:57:01;;;;;;;;;;;;;;;3.85;59.40;100183.94;4332787;33;20307;-82
2022/02/08 00:59:26;;;;;;;;;;;;;;;3.85;59.40;100193.37;4332597;33;20019;-82
2022/02/08 01:01:51;;;;;;;;;;;;;;;3.97;59.40;100185.66;4332134;33;26137;-80
2022/02/08 01:04:18;;;;;;;;;;;;;;;3.92;59.40;100182.22;4318549;33;20326;-83
2022/02/08 01:06:43;;;;;;;;;;;;;;;3.80;59.38;100190.78;4319302;33;20030;-81
2022/02/08 01:09:18;;;;;;;;;;;;;;;3.88;59.39;100191.66;4331324;33;19992;-83
2022/02/08 01:11:44;;;;;;;;;;;;;;;3.99;59.40;100184.78;4307922;33;20003;-82
2022/02/08 01:14:10;;;;;;;;;;;;;;;3.76;59.39;100194.19;4319444;33;19992;-83
2022/02/08 01:16:35;;;;;;;;;;;;;;;3.79;59.39;100191.66;4319468;33;20231;-83
2022/02/08 01:19:02;;;;;;;;;;;;;;;3.80;59.39;100203.66;4318863;33;20332;-83
2022/02/08 01:21:28;;;;;;;;;;;;;;;3.73;59.38;100194.19;4319283;33;19988;-83
2022/02/08 01:23:53;;;;;;;;;;;;;;;3.58;59.38;100207.88;4306868;33;19983;-83
2022/02/08 01:26:20;;;;;;;;;;;;;;;3.74;59.38;100215.66;4332630;33;19982;-83
2022/02/08 01:28:59;;;;;;;;;;;;;;;3.66;59.38;100233.66;4331253;33;20017;-83
2022/02/08 01:31:24;;;;;;;;;;;;;;;3.64;59.38;100230.22;4332588;33;20079;-82
2022/02/08 01:34:10;;;;;;;;;;;;;;;3.65;59.38;100242.22;4331881;33;20367;-83
2022/02/08 01:37:02;;;;;;;;;;;;;;;3.56;59.38;100247.34;4331069;33;20527;-82
2022/02/08 01:39:39;;;;;;;;;;;;;;;3.39;59.37;100252.41;4321861;33;20661;-82
2022/02/08 01:47:19;;;;;;;;;;;;;;;3.60;59.37;100259.38;4332342;33;19984;-82
2022/02/08 01:52:45;;;;;;;;;;;;;;;3.49;59.37;100272.19;4315271;33;20003;-83
2022/02/08 01:55:10;;;;;;;;;;;;;;;3.56;59.37;100280.81;4328644;33;20063;-83
2022/02/08 01:57:36;;;;;;;;;;;;;;;3.60;59.38;100282.53;4318805;33;20043;-83
2022/02/08 02:00:02;;;;;;;;;;;;;;;3.66;59.38;100283.41;4332366;33;19989;-82
2022/02/08 02:02:27;;;;;;;;;;;;;;;3.84;59.39;100298.09;4332238;33;19996;-83
2022/02/08 02:04:53;;;;;;;;;;;;;;;3.87;59.39;100298.09;4318087;33;27293;-82
2022/02/08 02:07:18;;;;;;;;;;;;;;;3.97;59.41;100302.41;4332376;33;19992;-83
2022/02/08 02:09:46;;;;;;;;;;;;;;;3.88;59.39;100311.84;4318790;33;20365;-82
2022/02/08 02:12:12;;;;;;;;;;;;;;;3.80;59.39;100316.97;4319232;33;20069;-83
2022/02/08 02:14:38;;;;;;;;;;;;;;;3.78;59.39;100320.34;4318640;33;20414;-83
2022/02/08 02:17:03;;;;;;;;;;;;;;;3.75;59.38;100323.78;4331979;33;19998;-81
2022/02/08 02:19:30;;;;;;;;;;;;;;;3.73;59.39;100328.06;4318762;33;20030;-82
2022/02/08 02:21:58;;;;;;;;;;;;;;;3.82;59.38;100312.69;4332244;33;19995;-83
2022/02/08 02:24:24;;;;;;;;;;;;;;;3.82;59.39;100310.09;4332215;33;20333;-82
2022/02/08 02:26:49;;;;;;;;;;;;;;;3.84;59.40;100328.13;4318079;33;27430;-82
2022/02/08 02:29:15;;;;;;;;;;;;;;;3.67;59.37;100328.91;4331775;33;20067;-83
2022/02/08 02:31:40;;;;;;;;;;;;;;;3.82;59.39;100333.28;4331991;33;19999;-83
2022/02/08 02:34:06;;;;;;;;;;;;;;;3.85;59.39;100335.87;4332285;33;20309;-82
2022/02/08 02:36:31;;;;;;;;;;;;;;;3.86;59.40;100339.31;4332515;33;19976;-83
2022/02/08 02:38:56;;;;;;;;;;;;;;;3.85;59.40;100342.72;4331677;33;21565;-83
2022/02/08 02:41:21;;;;;;;;;;;;;;;3.95;59.40;100353.06;4332265;33;20348;-83
2022/02/08 02:43:47;;;;;;;;;;;;;;;3.71;59.39;100360.66;4330554;33;20027;-83
2022/02/08 02:46:12;;;;;;;;;;;;;;;3.80;59.39;100360.75;4331503;33;31387;-84
2022/02/08 02:48:37;;;;;;;;;;;;;;;3.78;59.39;100367.56;4318566;33;20007;-84
2022/02/08 02:51:02;;;;;;;;;;;;;;;3.78;59.39;100362.41;4331993;33;19995;-84
2022/02/08 02:53:28;;;;;;;;;;;;;;;3.60;59.37;100367.50;4306538;33;20003;-82
2022/02/08 02:55:53;;;;;;;;;;;;;;;3.45;59.37;100375.97;4306258;33;20003;-83
2022/02/08 02:58:20;;;;;;;;;;;;;;;3.75;59.38;100377.84;4331981;33;20003;-83
2022/02/08 03:01:04;;;;;;;;;;;;;;;3.80;59.39;100386.50;4331916;33;19984;-83
2022/02/08 03:03:48;;;;;;;;;;;;;;;3.74;59.38;100394.16;4331867;33;20023;-83
2022/02/08 03:19:34;;;;;;;;;;;;;;;3.87;59.39;100401.12;4331906;33;20038;-82
2022/02/08 03:21:59;;;;;;;;;;;;;;;3.63;59.38;100400.97;4330991;33;32972;-83
2022/02/08 03:24:25;;;;;;;;;;;;;;;3.57;59.38;100406.09;4331376;33;19991;-83
2022/02/08 03:26:50;;;;;;;;;;;;;;;3.72;59.38;100408.75;4329539;33;32427;-82
2022/02/08 03:29:15;;;;;;;;;;;;;;;3.70;59.38;100413.03;4318053;33;19996;-82
2022/02/08 03:31:40;;;;;;;;;;;;;;;3.78;59.39;100418.19;4330901;33;29084;-82
2022/02/08 03:34:06;;;;;;;;;;;;;;;3.88;59.39;100425.16;4330954;33;28865;-82
2022/02/08 03:36:31;;;;;;;;;;;;;;;3.76;59.38;100430.22;4331534;33;20333;-82
2022/02/08 03:39:12;;;;;;;;;;;;;;;3.75;59.38;100442.22;4331464;33;19998;-83
2022/02/08 03:41:42;;;;;;;;;;;;;;;3.61;59.38;100446.44;4331724;33;19988;-84
2022/02/08 03:44:17;;;;;;;;;;;;;;;3.61;59.38;100449.88;4320476;33;20322;-84
2022/02/08 03:46:42;;;;;;;;;;;;;;;3.53;59.38;100454.06;4321002;33;19990;-83
2022/02/08 03:49:07;;;;;;;;;;;;;;;3.60;59.37;100450.72;4333442;33;19984;-83
2022/02/08 03:51:46;;;;;;;;;;;;;;;3.75;59.38;100462.81;4333504;33;19988;-83
2022/02/08 03:54:12;;;;;;;;;;;;;;;3.71;59.38;100471.37;4333357;33;20055;-83
2022/02/08 03:56:37;;;;;;;;;;;;;;;3.55;59.37;100474.69;4332909;33;27218;-83
2022/02/08 03:59:02;;;;;;;;;;;;;;;3.53;59.38;100484.09;4333364;33;20073;-83
2022/02/08 04:06:49;;;;;;;;;;;;;;;3.52;59.37;100492.69;4333471;33;20278;-83
2022/02/08 04:09:14;;;;;;;;;;;;;;;3.57;59.38;100498.75;4333340;33;19980;-83
2022/02/08 04:11:52;;;;;;;;;;;;;;;3.61;59.38;100490.19;4333213;33;20061;-83
2022/02/08 04:17:14;;;;;;;;;;;;;;;3.59;59.37;100494.47;4321889;33;20028;-83
2022/02/08 04:20:02;;;;;;;;;;;;;;;3.57;59.38;100503.91;4332053;33;20018;-83
2022/02/08 04:42:12;;;;;;;;;;;;;;;3.93;59.39;100549.66;4319631;33;20055;-83
2022/02/08 04:49:05;;;;;;;;;;;;;;;4.37;59.42;100541.38;4319891;33;20307;-83
2022/02/08 04:51:42;;;;;;;;;;;;;;;4.45;59.42;100542.25;4319144;33;20657;-82
2022/02/08 04:54:27;;;;;;;;;;;;;;;4.62;59.44;100549.25;4320523;33;19983;-83
2022/02/08 05:34:49;;;;;;;;;;;;;;;5.06;59.46;100570.94;4321111;33;20001;-83
2022/02/08 05:37:40;;;;;;;;;;;;;;;4.99;59.45;100576.94;4321212;33;20047;-83
2022/02/08 05:45:47;;;;;;;;;;;;;;;5.18;59.47;100583.84;4321126;33;20374;-82
2022/02/08 05:48:21;;;;;;;;;;;;;;;5.10;59.47;100581.25;4332550;33;20000;-83
2022/02/08 05:50:56;;;;;;;;;;;;;;;5.47;59.48;100581.38;4332653;33;20039;-82
2022/02/08 05:53:30;;;;;;;;;;;;;;;5.61;59.49;100595.16;4332518;33;19984;-83
2022/02/08 05:55:56;;;;;;;;;;;;;;;5.53;59.49;100591.72;4332373;33;20047;-82
2022/02/08 05:58:21;;;;;;;;;;;;;;;5.55;59.49;100595.16;4331881;33;23898;-83
2022/02/08 06:00:46;;;;;;;;;;;;;;;5.60;59.49;100600.31;4332297;33;20051;-83
2022/02/08 06:03:11;;;;;;;;;;;;;;;5.49;59.48;100595.16;4318827;33;19975;-83
2022/02/08 06:05:37;;;;;;;;;;;;;;;5.61;59.48;100602.03;4331294;33;20404;-84
2022/02/08 06:08:02;;;;;;;;;;;;;;;5.54;59.49;100601.19;4332433;33;19988;-83
2022/02/08 06:10:29;;;;;;;;;;;;;;;5.50;59.49;100602.03;4332282;33;19991;-83
2022/02/08 06:12:56;;;;;;;;;;;;;;;5.66;59.49;100611.50;4332271;33;20317;-83
2022/02/08 06:15:23;;;;;;;;;;;;;;;5.87;59.50;100602.94;4319017;33;19991;-83
2022/02/08 06:17:49;;;;;;;;;;;;;;;5.84;59.51;100613.25;4318883;33;19991;-83
2022/02/08 06:20:14;;;;;;;;;;;;;;;5.94;59.51;100614.19;4332031;33;20068;-84
2022/02/08 06:22:43;;;;;;;;;;;;;;;5.92;59.51;100610.75;4332279;33;19979;-83
2022/02/08 06:25:11;;;;;;;;;;;;;;;5.92;59.51;100610.75;4318958;33;20421;-83
2022/02/08 06:27:36;;;;;;;;;;;;;;;5.98;59.50;100613.31;4332150;33;20366;-83
2022/02/08 06:30:02;;;;;;;;;;;;;;;6.06;59.52;100624.50;4332223;33;20051;-83
2022/02/08 06:32:28;;;;;;;;;;;;;;;6.20;59.53;100622.81;4318626;33;19984;-83
2022/02/08 06:34:56;;;;;;;;;;;;;;;6.35;59.54;100621.91;4318543;33;20056;-83
2022/02/08 06:37:22;;;;;;;;;;;;;;;6.27;59.52;100637.44;4318962;33;19995;-83
2022/02/08 06:39:48;;;;;;;;;;;;;;;6.46;59.54;100638.28;4329974;33;19991;-83
2022/02/08 06:42:13;;;;;;;;;;;;;;;6.53;59.54;100636.56;4318020;33;20353;-83
2022/02/08 06:44:38;;;;;;;;;;;;;;;6.47;59.54;100650.37;4331269;33;24316;-83
2022/02/08 06:47:03;;;;;;;;;;;;;;;6.35;59.54;100643.47;4318300;33;19987;-83
2022/02/08 06:49:29;;;;;;;;;;;;;;;6.61;59.55;100660.69;4332110;33;19991;-83
2022/02/08 06:51:54;;;;;;;;;;;;;;;6.63;59.54;100664.16;4309084;33;20038;-85
2022/02/08 06:54:19;;;;;;;;;;;;;;;6.57;59.54;100664.13;4291027;33;20068;-85
2022/02/08 06:56:46;;;;;;;;;;;;;;;6.74;59.55;100665.84;4303684;33;20051;-86
2022/02/08 06:59:14;;;;;;;;;;;;;;;6.72;59.55;100671.88;4317244;33;19980;-86
2022/02/08 07:01:39;;;;;;;;;;;;;;;6.53;59.54;100672.75;4317171;33;19995;-86
2022/02/08 07:04:06;;;;;;;;;;;;;;;6.71;59.55;100662.41;4316707;33;20325;-85
2022/02/08 07:06:32;;;;;;;;;;;;;;;6.77;59.55;100680.50;4303905;33;20105;-87
2022/02/08 07:08:57;;;;;;;;;;;;;;;6.42;59.54;100686.56;4303528;33;20000;-87
2022/02/08 07:11:22;;;;;;;;;;;;;;;6.50;59.54;100676.22;4300698;33;19992;-88
2022/02/08 07:13:49;;;;;;;;;;;;;;;6.53;59.54;100683.12;4302566;33;19988;-86
2022/02/08 07:16:14;;;;;;;;;;;;;;;6.63;59.54;100685.72;4301895;33;20001;-85
2022/02/08 07:18:39;;;;;;;;;;;;;;;6.68;59.55;100690.87;4302789;33;19996;-86
2022/02/08 07:21:05;;;;;;;;;;;;;;;6.61;59.55;100687.41;4303472;33;27529;-87
2022/02/08 07:23:30;;;;;;;;;;;;;;;6.72;59.55;100690.00;4304206;33;20028;-86
2022/02/08 07:25:55;;;;;;;;;;;;;;;6.81;59.56;100694.28;4314534;33;24142;-87
2022/02/08 07:28:21;;;;;;;;;;;;;;;6.74;59.56;100688.28;4304332;33;20317;-88
2022/02/08 07:30:46;;;;;;;;;;;;;;;6.75;59.56;100697.75;4315136;33;20254;-86
2022/02/08 07:33:14;;;;;;;;;;;;;;;6.81;59.56;100696.88;4304162;33;20004;-91
2022/02/08 07:35:53;;;;;;;;;;;;;;;6.77;59.55;100699.47;4303026;33;19988;-85
2022/02/08 07:38:40;;;;;;;;;;;;;;;6.97;59.57;100690.81;4313842;33;20055;-86
2022/02/08 07:43:29;;;;;;;;;;;;;;;6.97;59.57;100696.84;4302764;33;20322;-86
2022/02/08 07:45:55;;;;;;;;;;;;;;;6.87;59.56;100704.66;4304124;33;19984;-86
2022/02/08 07:48:20;;;;;;;;;;;;;;;6.90;59.56;100699.47;4302712;33;19992;-86
2022/02/08 07:50:49;;;;;;;;;;;;;;;7.01;59.57;100695.13;4303855;33;20240;-87
2022/02/08 07:53:15;;;;;;;;;;;;;;;7.02;59.58;100705.47;4304602;33;20004;-86
2022/02/08 07:55:40;;;;;;;;;;;;;;;6.99;59.57;100700.28;4304274;33;20004;-87
2022/02/08 07:58:06;;;;;;;;;;;;;;;7.05;59.57;100682.16;4304063;33;19996;-86
2022/02/08 08:00:31;;;;;;;;;;;;;;;6.97;59.57;100711.53;4314929;33;19992;-87
2022/02/08 08:02:56;;;;;;;;;;;;;;;7.11;59.58;100707.19;4304029;33;20018;-86
2022/02/08 08:05:21;;;;;;;;;;;;;;;7.15;59.57;100720.97;4303496;33;22764;-86
2022/02/08 08:07:47;;;;;;;;;;;;;;;7.09;59.58;100722.69;4302487;33;31555;-84
2022/02/08 08:10:17;;;;;;;;;;;;;;;7.09;59.58;100725.28;4307954;33;20291;-85
2022/02/08 08:12:46;;;;;;;;;;;;;;;7.16;59.57;100723.56;4317056;33;20028;-88
2022/02/08 08:15:25;;;;;;;;;;;;;;;7.26;59.59;100729.56;4305652;33;20000;-88
2022/02/08 08:18:00;;;;;;;;;;;;;;;7.12;59.58;100733.94;4317159;33;20051;-89
2022/02/08 08:20:26;;;;;;;;;;;;;;;7.23;59.58;100738.22;4306113;33;20286;-89
2022/02/08 08:22:51;;;;;;;;;;;;;;;6.98;59.57;100741.72;4292332;33;20051;-88
2022/02/08 08:25:16;;;;;;;;;;;;;;;6.92;59.57;100755.53;4318282;33;20024;-87
2022/02/08 08:27:41;;;;;;;;;;;;;;;6.69;59.55;100752.97;4304239;33;20003;-91
2022/02/08 08:30:09;;;;;;;;;;;;;;;6.99;59.57;100759.84;4305859;33;19995;-93
2022/02/08 08:32:34;;;;;;;;;;;;;;;6.88;59.57;100753.81;4306694;33;19991;-90
2022/02/08 08:34:59;;;;;;;;;;;;;;;6.95;59.57;100771.06;4306007;33;20004;-88
2022/02/08 08:37:25;;;;;;;;;;;;;;;7.28;59.59;100761.50;4295092;33;20044;-93
2022/02/08 08:39:52;;;;;;;;;;;;;;;7.46;59.59;100764.03;4306036;33;20059;-90
2022/02/08 08:50:12;;;;;;;;;;;;;;;7.78;59.61;100756.13;4323435;33;19974;-94
2022/02/08 08:52:43;;;;;;;;;;;;;;;8.17;59.64;100755.06;4310150;33;20012;-95
2022/02/08 08:55:08;;;;;;;;;;;;;;;8.02;59.63;100765.53;4308393;33;19996;-90
2022/02/08 08:57:33;;;;;;;;;;;;;;;8.07;59.63;100749.97;4307735;33;20011;-88
2022/02/08 08:59:59;;;;;;;;;;;;;;;8.40;59.65;100744.59;4306012;33;19976;-93
2022/02/08 09:02:24;;;;;;;;;;;;;;;8.60;59.67;100739.25;4306866;33;20349;-92
2022/02/08 09:04:51;;;;;;;;;;;;;;;8.39;59.65;100734.22;4305846;33;20266;-93
2022/02/08 09:07:17;;;;;;;;;;;;;;;8.29;59.65;100736.00;4304975;33;19984;-85
2022/02/08 09:09:44;;;;;;;;;;;;;;;8.38;59.65;100737.69;4316527;33;19988;-87
2022/02/08 09:18:13;;;;;;;;;;;;;;;8.21;59.64;100730.84;4309986;33;20362;-95
2022/02/08 09:26:09;;;;;;;;;;;;;;;7.84;59.62;100727.63;4318091;33;19985;-85
2022/02/08 09:31:03;;;;;;;;;;;;;;;7.65;59.61;100732.03;4304001;33;20007;-85
2022/02/08 09:33:28;;;;;;;;;;;;;;;7.72;59.61;100724.22;4316246;33;20432;-86
2022/02/08 09:35:53;;;;;;;;;;;;;;;7.87;59.62;100739.69;4304339;33;20076;-86
2022/02/08 09:38:19;;;;;;;;;;;;;;;8.03;59.63;100754.28;4304332;33;20515;-86
2022/02/08 09:40:44;;;;;;;;;;;;;;;7.97;59.62;100747.41;4303360;33;19972;-86
2022/02/08 09:43:10;;;;;;;;;;;;;;;8.16;59.64;100749.91;4304380;33;20312;-86
2022/02/08 09:45:35;;;;;;;;;;;;;;;8.06;59.63;100741.31;4303864;33;20015;-86
2022/02/08 09:48:18;;;;;;;;;;;;;;;8.20;59.64;100738.63;4303408;33;20004;-86
2022/02/08 09:50:43;;;;;;;;;;;;;;;8.40;59.65;100736.78;4298702;33;20857;-85
2022/02/08 09:53:13;;;;;;;;;;;;;;;8.45;59.65;100731.56;4304200;33;19988;-86
2022/02/08 09:55:40;;;;;;;;;;;;;;;8.58;59.65;100728.87;4304801;33;20008;-86
2022/02/08 09:58:06;;;;;;;;;;;;;;;8.46;59.66;100726.38;4292389;33;20055;-86
2022/02/08 10:00:32;;;;;;;;;;;;;;;8.29;59.65;100723.88;4302516;33;20282;-88
2022/02/08 10:03:04;;;;;;;;;;;;;;;8.28;59.63;100737.72;4304708;33;19979;-87
2022/02/08 10:05:37;;;;;;;;;;;;;;;7.99;59.63;100730.09;4318004;33;20002;-88
2022/02/08 10:08:06;;;;;;;;;;;;;;;7.93;59.63;100713.72;4304362;33;20004;-87
2022/02/08 10:10:31;;;;;;;;;;;;;;;7.91;59.62;100718.94;4304392;33;19999;-87
2022/02/08 10:21:43;;;;;;;;;;;;;;;8.36;59.64;100703.12;4300664;33;20619;-89
2022/02/08 10:24:09;;;;;;;;;;;;;;;8.25;59.64;100693.63;4291238;33;19992;-89
2022/02/08 10:26:52;;;;;;;;;;;;;;;8.59;59.66;100686.47;4298440;33;20068;-88
2022/02/08 10:40:04;;;;;;;;;;;;;;;8.46;59.66;100671.88;4317824;33;20002;-88
2022/02/08 10:42:29;;;;;;;;;;;;;;;8.49;59.65;100665.78;4317618;33;19984;-87
2022/02/08 10:44:55;;;;;;;;;;;;;;;8.45;59.66;100671.88;4317438;33;19977;-88
2022/02/08 10:47:33;;;;;;;;;;;;;;;8.52;59.66;100677.03;4304117;33;20026;-87
2022/02/08 10:49:58;;;;;;;;;;;;;;;8.59;59.67;100680.44;4317228;33;19984;-87
2022/02/08 10:52:26;;;;;;;;;;;;;;;8.86;59.67;100669.78;4303734;33;20018;-86
2022/02/08 10:54:51;;;;;;;;;;;;;;;8.89;59.68;100633.37;4317251;33;20028;-89
2022/02/08 10:57:26;;;;;;;;;;;;;;;8.58;59.66;100668.31;4304335;33;20753;-87
2022/02/08 10:59:57;;;;;;;;;;;;;;;8.27;59.64;100659.91;4304891;33;19991;-86
2022/02/08 11:02:31;;;;;;;;;;;;;;;8.41;59.65;100659.81;4304412;33;19969;-87
2022/02/08 11:05:04;;;;;;;;;;;;;;;8.41;59.65;100649.44;4304797;33;19992;-86
2022/02/08 11:10:13;;;;;;;;;;;;;;;8.30;59.65;100673.72;4316965;33;19996;-90
2022/02/08 11:15:23;;;;;;;;;;;;;;;8.68;59.67;100641.41;4303510;33;20039;-89
2022/02/08 11:18:21;;;;;;;;;;;;;;;8.50;59.65;100654.53;4305631;33;20009;-88
2022/02/08 11:20:49;;;;;;;;;;;;;;;8.51;59.66;100672.69;4316815;33;20043;-88
2022/02/08 11:23:32;;;;;;;;;;;;;;;8.64;59.66;100663.06;4317175;33;19985;-89
2022/02/08 11:25:58;;;;;;;;;;;;;;;8.57;59.66;100649.31;4305190;33;19984;-89
2022/02/08 11:28:32;;;;;;;;;;;;;;;8.61;59.66;100665.69;4291803;33;20067;-89
2022/02/08 11:39:31;;;;;;;;;;;;;;;9.20;59.70;100661.59;4306863;33;20002;-90
2022/02/08 11:44:52;;;;;;;;;;;;;;;9.08;59.69;100657.41;4306211;33;19991;-90
2022/02/08 11:55:09;;;;;;;;;;;;;;;9.18;59.69;100652.97;4305191;33;20139;-88
2022/02/08 11:58:04;;;;;;;;;;;;;;;9.36;59.71;100655.34;4305043;33;20007;-90
2022/02/08 12:00:34;;;;;;;;;;;;;;;9.54;59.71;100649.06;4315866;33;20010;-89
2022/02/08 12:08:34;;;;;;;;;;;;;;;9.86;59.73;100653.78;4309871;33;20006;-93
2022/02/08 13:05:07;;;;;;;;;;;;;;;9.00;59.69;100633.28;4318230;33;20015;-83
2022/02/08 14:02:10;;;;;;;;;;;;;;;10.11;59.75;100628.25;4306417;33;20026;-85
2022/02/08 14:07:24;;;;;;;;;;;;;;;10.08;59.74;100636.13;4317665;33;19996;-85
2022/02/08 14:13:28;;;;;;;;;;;;;;;10.09;59.75;100617.88;4309491;33;19984;-84
2022/02/08 14:16:07;;;;;;;;;;;;;;;10.09;59.76;100625.69;4307420;33;20036;-84
2022/02/08 14:19:05;;;;;;;;;;;;;;;10.30;59.76;100628.88;4317633;33;19988;-83
2022/02/08 14:24:11;;;;;;;;;;;;;;;10.29;59.76;100622.81;4303841;33;20028;-84
2022/02/08 14:29:48;;;;;;;;;;;;;;;10.51;59.77;100625.91;4317311;33;20015;-84
2022/02/08 15:07:45;;;;;;;;;;;;;;;9.95;59.74;100608.59;4306123;33;19998;-88
2022/02/08 15:09:58;;;;;;;;;;;;;;;9.89;59.74;100600.88;4317265;33;19988;-91
2022/02/08 15:12:27;;;;;;;;;;;;;;;9.81;59.74;100608.81;4304062;33;20428;-89
2022/02/08 15:14:59;;;;;;;;;;;;;;;9.83;59.73;100615.69;4317690;33;20026;-90
2022/02/08 15:17:25;;;;;;;;;;;;;;;9.89;59.74;100619.94;4293919;33;20052;-94
2022/02/08 15:19:52;;;;;;;;;;;;;;;9.94;59.75;100612.94;4293114;33;20307;-90
2022/02/08 15:22:18;;;;;;;;;;;;;;;9.90;59.74;100610.41;4292032;33;20000;-87
2022/02/08 15:24:43;;;;;;;;;;;;;;;9.95;59.74;100621.59;4303450;33;20326;-87
2022/02/08 15:27:11;;;;;;;;;;;;;;;9.68;59.73;100634.13;4316911;33;19990;-87
2022/02/08 15:29:37;;;;;;;;;;;;;;;9.55;59.72;100640.37;4315523;33;20326;-88
2022/02/08 15:32:03;;;;;;;;;;;;;;;9.46;59.71;100645.69;4303003;33;20004;-88
2022/02/08 15:34:28;;;;;;;;;;;;;;;9.53;59.72;100645.59;4303550;33;19992;-86
2022/02/08 15:36:55;;;;;;;;;;;;;;;9.64;59.73;100662.78;4317307;33;20109;-88
2022/02/08 15:39:20;;;;;;;;;;;;;;;9.53;59.71;100666.41;4305658;33;19973;-88
2022/02/08 15:41:46;;;;;;;;;;;;;;;9.60;59.72;100671.50;4318796;33;20019;-87
2022/02/08 15:44:15;;;;;;;;;;;;;;;9.61;59.72;100668.03;4318709;33;20002;-88
2022/02/08 15:46:40;;;;;;;;;;;;;;;9.57;59.72;100667.22;4305395;33;19995;-89
2022/02/08 15:49:06;;;;;;;;;;;;;;;9.57;59.72;100669.81;4305615;33;20036;-88
2022/02/08 15:51:40;;;;;;;;;;;;;;;9.63;59.71;100661.06;4304272;33;20008;-88
2022/02/08 15:54:14;;;;;;;;;;;;;;;9.57;59.71;100648.16;4317593;33;19998;-87
2022/02/08 16:09:49;;;;;;;;;;;;;;;9.30;59.71;100637.25;4303811;33;20023;-85
2022/02/08 16:28:11;;;;;;;;;;;;;;;9.47;59.71;100645.69;4291237;33;20095;-86
2022/02/08 16:57:57;;;;;;;;;;;;;;;9.62;59.72;100630.75;4318140;33;20346;-88
2022/02/08 16:59:54;;;;;;;;;;;;;;;9.58;59.72;100629.06;4302679;33;19992;-86
2022/02/08 17:02:21;;;;;;;;;;;;;;;9.50;59.72;100637.84;4292115;33;21751;-86
2022/02/08 17:04:47;;;;;;;;;;;;;;;9.42;59.72;100631.88;4304305;33;20036;-85
2022/02/08 17:07:12;;;;;;;;;;;;;;;9.52;59.72;100633.50;4304413;33;20003;-86
2022/02/08 17:12:12;;;;;;;;;;;;;;;9.72;59.73;100616.75;4304479;33;20007;-86
2022/02/08 17:34:25;;;;;;;;;;;;;;;9.65;59.73;100625.50;4305276;33;20000;-85
2022/02/08 17:45:48;;;;;;;;;;;;;;;9.95;59.74;100611.22;4318215;33;20011;-87
2022/02/08 17:47:42;;;;;;;;;;;;;;;10.14;59.75;100602.19;4306616;33;20057;-87
2022/02/08 17:50:08;;;;;;;;;;;;;;;10.07;59.75;100600.59;4292356;33;20000;-87
2022/02/08 17:52:37;;;;;;;;;;;;;;;9.84;59.73;100593.16;4304655;33;19980;-88
2022/02/08 17:55:03;;;;;;;;;;;;;;;9.95;59.74;100587.81;4304455;33;19988;-87
2022/02/08 17:57:28;;;;;;;;;;;;;;;9.92;59.74;100588.69;4304291;33;20479;-85
2022/02/08 17:59:54;;;;;;;;;;;;;;;9.66;59.73;100602.09;4290190;33;23811;-86
2022/02/08 18:02:21;;;;;;;;;;;;;;;9.71;59.72;100589.03;4316385;33;20036;-86
2022/02/08 18:04:47;;;;;;;;;;;;;;;9.82;59.73;100580.19;4303402;33;20324;-85
2022/02/08 18:07:17;;;;;;;;;;;;;;;9.79;59.74;100581.97;4292148;33;20421;-87
2022/02/08 18:09:42;;;;;;;;;;;;;;;9.87;59.73;100576.66;4304986;33;20027;-87
2022/02/08 18:12:07;;;;;;;;;;;;;;;9.73;59.73;100575.13;4303687;33;29637;-87
2022/02/08 18:14:33;;;;;;;;;;;;;;;9.70;59.72;100572.59;4304484;33;20316;-86
2022/02/08 18:17:22;;;;;;;;;;;;;;;9.64;59.73;100579.59;4317726;33;20018;-87
2022/02/08 18:19:58;;;;;;;;;;;;;;;9.57;59.71;100567.59;4306325;33;20000;-87
2022/02/08 19:08:45;;;;;;;;;;;;;;;9.69;59.72;100583.84;4316763;33;20007;-87
2022/02/08 19:16:21;;;;;;;;;;;;;;;9.84;59.73;100578.41;4305040;33;20003;-85
2022/02/08 19:19:02;;;;;;;;;;;;;;;9.88;59.74;100576.63;4316501;33;20004;-86
2022/02/08 19:23:53;;;;;;;;;;;;;;;9.98;59.74;100574.75;4304685;33;20322;-87
2022/02/08 19:26:18;;;;;;;;;;;;;;;10.09;59.75;100581.47;4304297;33;19983;-86
2022/02/08 19:28:44;;;;;;;;;;;;;;;9.91;59.73;100583.50;4304421;33;19988;-87
2022/02/08 19:31:09;;;;;;;;;;;;;;;9.74;59.73;100589.00;4304687;33;19992;-85
2022/02/08 19:33:34;;;;;;;;;;;;;;;9.94;59.75;100586.09;4303892;33;27467;-87
2022/02/08 19:35:59;;;;;;;;;;;;;;;9.69;59.72;100596.84;4318039;33;20007;-87
2022/02/08 19:38:26;;;;;;;;;;;;;;;9.84;59.73;100581.00;4304648;33;20015;-86
2022/02/08 19:40:52;;;;;;;;;;;;;;;9.82;59.73;100590.59;4304988;33;19992;-85
2022/02/08 19:43:17;;;;;;;;;;;;;;;9.65;59.73;100589.09;4304517;33;19992;-86
2022/02/08 19:45:44;;;;;;;;;;;;;;;9.62;59.72;100591.75;4291876;33;24844;-86
2022/02/08 19:48:10;;;;;;;;;;;;;;;9.72;59.73;100599.41;4304488;33;20432;-85
2022/02/08 19:50:36;;;;;;;;;;;;;;;9.65;59.73;100602.09;4304532;33;20028;-85
2022/02/08 19:53:06;;;;;;;;;;;;;;;9.46;59.72;100605.00;4305635;33;20076;-87
2022/02/08 19:58:12;;;;;;;;;;;;;;;9.38;59.71;100613.75;4305988;33;19972;-86
2022/02/08 20:00:39;;;;;;;;;;;;;;;9.59;59.72;100607.41;4305654;33;20040;-85
2022/02/08 20:03:07;;;;;;;;;;;;;;;9.40;59.70;100599.00;4305676;33;19996;-86
2022/02/08 20:05:33;;;;;;;;;;;;;;;9.29;59.70;100600.91;4305340;33;19972;-86
2022/02/08 20:07:59;;;;;;;;;;;;;;;9.22;59.70;100600.94;4305317;33;19998;-85
2022/02/08 20:10:24;;;;;;;;;;;;;;;9.26;59.71;100604.41;4318519;33;19980;-86
2022/02/08 20:12:49;;;;;;;;;;;;;;;9.04;59.70;100609.00;4318377;33;20064;-85
2022/02/08 20:15:15;;;;;;;;;;;;;;;9.16;59.70;100608.81;4305076;33;19975;-85
2022/02/08 20:17:40;;;;;;;;;;;;;;;9.26;59.71;100614.78;4304815;33;22173;-86
2022/02/08 20:20:11;;;;;;;;;;;;;;;9.04;59.69;100610.72;4293115;33;20347;-86
2022/02/08 20:22:38;;;;;;;;;;;;;;;9.20;59.70;100604.44;4306054;33;20010;-85
2022/02/08 20:25:06;;;;;;;;;;;;;;;9.13;59.70;100600.22;4304578;33;19969;-86
2022/02/08 20:27:51;;;;;;;;;;;;;;;9.16;59.70;100605.38;4318386;33;20036;-85
2022/02/08 20:30:20;;;;;;;;;;;;;;;9.28;59.70;100604.38;4294553;33;20052;-85
2022/02/08 20:32:45;;;;;;;;;;;;;;;9.16;59.69;100597.56;4305534;33;19996;-85
2022/02/08 20:35:11;;;;;;;;;;;;;;;9.25;59.70;100600.06;4318757;33;19988;-85
2022/02/08 20:37:39;;;;;;;;;;;;;;;9.16;59.70;100602.78;4292166;33;19987;-87
2022/02/08 20:40:05;;;;;;;;;;;;;;;9.08;59.69;100587.28;4292379;33;20011;-87